AKST,Max TemperatureF,Mean TemperatureF,Min TemperatureF,Max Dew PointF,MeanDew PointF,Min DewpointF,Max Humidity, Mean Humidity, Min Humidity, Max Sea Level PressureIn, Mean Sea Level PressureIn, Min Sea Level PressureIn, Max VisibilityMiles, Mean VisibilityMiles, Min VisibilityMiles, Max Wind SpeedMPH, Mean Wind SpeedMPH, Max Gust SpeedMPH,PrecipitationIn, CloudCover, Events, WindDirDegrees
2010-12-1,19,15,11,16,9,2,0,0,0,30.02,29.87,29.77,10,4,1,26,15,32,0.07,7,Snow,75
2010-12-2,29,24,18,28,23,16,0,0,0,29.84,29.78,29.52,10,2,0,31,13,37,0.15,8,Fog-Snow,101
2010-12-3,25,22,19,22,20,18,100,91,77,29.50,29.26,29.15,10,2,0,30,23,43,0.19,8,Fog-Snow,76
2010-12-4,27,17,7,19,11,1,93,74,68,29.93,29.56,29.27,10,10,2,21,8,26,0.00,3,Snow,351
2010-12-5,10,1,-8,2,-4,-11,91,78,64,30.49,30.26,29.95,10,10,10,15,6,18,0.00,1,,19
2010-12-6,3,-4,-10,8,-2,-13,0,0,0,30.54,30.50,30.42,10,10,8,6,1,6,T,4,Snow,79
2010-12-7,11,5,-2,8,0,-8,0,0,0,30.41,30.31,30.25,10,10,3,8,3,9,0.00,5,,60
2010-12-8,10,5,-1,4,-1,-4,0,0,0,30.25,30.24,30.22,10,10,10,8,1,9,0.00,1,,342
2010-12-9,23,16,8,15,10,4,0,0,0,30.32,30.28,30.23,10,10,10,23,9,25,0.00,1,,342
2010-12-10,16,7,-3,8,2,-6,0,0,0,30.30,30.20,30.13,10,10,10,12,4,14,0.00,2,,346
2010-12-11,12,2,-9,-1,-7,-11,0,0,0,30.36,30.31,30.21,10,10,10,25,4,30,0.00,1,,20
2010-12-12,20,6,-8,18,8,-9,0,0,0,30.35,30.09,29.75,10,5,1,14,6,17,0.03,8,Snow,76
2010-12-13,21,11,1,18,10,-4,0,0,0,30.02,29.78,29.65,10,9,4,33,11,43,T,5,Snow,359
2010-12-14,4,-5,-14,-4,-11,-18,0,0,0,30.42,30.20,30.03,10,10,10,7,2,8,0.00,1,,3
2010-12-15,8,-4,-16,4,-7,-19,0,0,0,30.58,30.52,30.44,10,10,7,9,2,12,T,4,Snow,63
2010-12-16,9,4,-2,4,2,-1,0,0,0,30.59,30.53,30.43,10,10,9,21,10,25,T,7,Snow,78
2010-12-17,14,11,8,12,7,3,0,0,0,30.42,30.36,30.33,10,4,1,22,13,26,0.06,8,Snow,82
2010-12-18,22,18,13,20,16,10,0,0,0,30.38,30.08,29.66,4,1,0,22,16,28,0.26,8,Fog-Snow,91
2010-12-19,25,19,13,23,17,10,0,0,0,29.89,29.56,29.33,10,2,0,38,20,43,0.43,7,Fog-Snow,303
2010-12-20,14,9,3,10,4,-3,0,0,0,30.07,30.02,29.91,10,8,3,25,11,31,T,3,Snow,311
2010-12-21,17,8,-1,0,-3,-6,0,0,0,30.55,30.24,30.06,10,10,2,26,10,36,0.00,0,,357
2010-12-22,11,1,-9,7,-7,-16,0,0,0,30.69,30.62,30.48,10,9,3,17,6,21,0.01,3,Snow,45
2010-12-23,11,9,7,9,6,3,0,0,0,30.47,30.12,29.97,10,2,0,30,20,36,0.18,8,Fog-Snow,78
2010-12-24,11,3,-6,4,-1,-8,0,0,0,30.18,30.11,30.03,10,9,3,24,7,30,0.01,6,Snow,32
2010-12-25,3,0,-3,-5,-8,-11,0,0,0,30.11,30.05,29.99,10,4,1,35,22,40,0.00,2,Snow,359
2010-12-26,0,-5,-9,-9,-12,-16,0,0,0,29.99,29.93,29.89,10,8,2,30,16,35,0.00,2,Snow,359
2010-12-27,-2,-7,-11,-16,-17,-19,0,0,0,29.90,29.88,29.86,10,10,10,20,0,24,0.00,0,,357
2010-12-28,-7,-15,-23,-19,-24,-29,0,0,0,29.89,29.86,29.82,10,10,10,14,0,16,0.00,0,,12
2010-12-29,-10,-17,-24,-21,-24,-29,0,0,0,29.83,29.72,29.59,10,10,10,17,7,21,0.00,1,,360
2010-12-30,3,-6,-15,-5,-10,-22,0,0,0,29.56,29.40,29.31,10,9,5,13,6,16,T,7,Snow,342
2010-12-31,7,-3,-13,3,-3,-15,0,0,0,29.49,29.38,29.31,10,7,2,10,2,12,0.02,6,Snow,335